sensor_id;sensor_type;location;lat;lon;timestamp;temperature;humidity
76897;SHT30;65856;52.178;21.176;2023-09-19T00:00:45;20.48;70.86
76897;SHT30;65856;52.178;21.176;2023-09-19T00:03:14;20.44;70.92
76897;SHT30;65856;52.178;21.176;2023-09-19T00:05:41;20.45;70.98
76897;SHT30;65856;52.178;21.176;2023-09-19T00:08:10;20.42;71.08
76897;SHT30;65856;52.178;21.176;2023-09-19T00:10:35;20.37;71.21
76897;SHT30;65856;52.178;21.176;2023-09-19T00:13:04;20.33;71.30
76897;SHT30;65856;52.178;21.176;2023-09-19T00:15:37;20.31;71.40
76897;SHT30;65856;52.178;21.176;2023-09-19T00:18:07;20.29;71.50
76897;SHT30;65856;52.178;21.176;2023-09-19T00:20:37;20.27;71.60
76897;SHT30;65856;52.178;21.176;2023-09-19T00:23:04;20.25;71.63
76897;SHT30;65856;52.178;21.176;2023-09-19T00:25:30;20.23;71.70
76897;SHT30;65856;52.178;21.176;2023-09-19T00:27:57;20.21;71.79
76897;SHT30;65856;52.178;21.176;2023-09-19T00:30:23;20.19;71.87
76897;SHT30;65856;52.178;21.176;2023-09-19T00:32:49;20.18;71.93
76897;SHT30;65856;52.178;21.176;2023-09-19T00:35:20;20.16;72.00
76897;SHT30;65856;52.178;21.176;2023-09-19T00:37:51;20.14;72.11
76897;SHT30;65856;52.178;21.176;2023-09-19T00:40:17;20.11;72.20
76897;SHT30;65856;52.178;21.176;2023-09-19T00:42:44;20.08;72.32
76897;SHT30;65856;52.178;21.176;2023-09-19T00:45:13;20.05;72.32
76897;SHT30;65856;52.178;21.176;2023-09-19T00:47:43;20.02;72.48
76897;SHT30;65856;52.178;21.176;2023-09-19T00:50:13;20.00;72.53
76897;SHT30;65856;52.178;21.176;2023-09-19T00:52:46;19.98;72.63
76897;SHT30;65856;52.178;21.176;2023-09-19T00:55:15;19.96;72.68
76897;SHT30;65856;52.178;21.176;2023-09-19T00:57:44;19.96;72.71
76897;SHT30;65856;52.178;21.176;2023-09-19T01:00:12;19.94;72.79
76897;SHT30;65856;52.178;21.176;2023-09-19T01:02:41;19.92;72.90
76897;SHT30;65856;52.178;21.176;2023-09-19T01:05:08;19.90;72.95
76897;SHT30;65856;52.178;21.176;2023-09-19T01:07:35;19.88;73.01
76897;SHT30;65856;52.178;21.176;2023-09-19T01:10:04;19.88;73.05
76897;SHT30;65856;52.178;21.176;2023-09-19T01:15:22;19.83;73.19
76897;SHT30;65856;52.178;21.176;2023-09-19T01:21:21;19.78;73.32
76897;SHT30;65856;52.178;21.176;2023-09-19T01:24:07;19.77;73.40
76897;SHT30;65856;52.178;21.176;2023-09-19T01:27:23;19.76;73.41
76897;SHT30;65856;52.178;21.176;2023-09-19T01:30:32;19.74;73.50
76897;SHT30;65856;52.178;21.176;2023-09-19T01:33:05;19.75;73.51
76897;SHT30;65856;52.178;21.176;2023-09-19T01:35:33;19.74;73.54
76897;SHT30;65856;52.178;21.176;2023-09-19T01:37:59;19.74;73.60
76897;SHT30;65856;52.178;21.176;2023-09-19T01:40:25;19.72;73.59
76897;SHT30;65856;52.178;21.176;2023-09-19T01:45:46;19.72;73.61
76897;SHT30;65856;52.178;21.176;2023-09-19T01:52:14;19.69;73.74
76897;SHT30;65856;52.178;21.176;2023-09-19T01:54:51;19.66;73.76
76897;SHT30;65856;52.178;21.176;2023-09-19T01:57:58;19.65;73.83
76897;SHT30;65856;52.178;21.176;2023-09-19T02:00:26;19.64;73.90
76897;SHT30;65856;52.178;21.176;2023-09-19T02:02:54;19.64;73.90
76897;SHT30;65856;52.178;21.176;2023-09-19T02:05:23;19.62;73.97
76897;SHT30;65856;52.178;21.176;2023-09-19T02:07:51;19.60;74.02
76897;SHT30;65856;52.178;21.176;2023-09-19T02:10:18;19.59;74.06
76897;SHT30;65856;52.178;21.176;2023-09-19T02:12:44;19.58;74.09
76897;SHT30;65856;52.178;21.176;2023-09-19T02:15:10;19.58;74.13
76897;SHT30;65856;52.178;21.176;2023-09-19T02:17:36;19.57;74.19
76897;SHT30;65856;52.178;21.176;2023-09-19T02:20:02;19.57;74.13
76897;SHT30;65856;52.178;21.176;2023-09-19T02:22:35;19.59;74.19
76897;SHT30;65856;52.178;21.176;2023-09-19T02:25:02;19.60;74.19
76897;SHT30;65856;52.178;21.176;2023-09-19T02:27:32;19.57;74.24
76897;SHT30;65856;52.178;21.176;2023-09-19T02:29:57;19.56;74.30
76897;SHT30;65856;52.178;21.176;2023-09-19T02:32:23;19.55;74.33
76897;SHT30;65856;52.178;21.176;2023-09-19T02:34:48;19.55;74.35
76897;SHT30;65856;52.178;21.176;2023-09-19T02:37:16;19.51;74.39
76897;SHT30;65856;52.178;21.176;2023-09-19T02:39:44;19.48;74.46
76897;SHT30;65856;52.178;21.176;2023-09-19T02:42:09;19.46;74.50
76897;SHT30;65856;52.178;21.176;2023-09-19T02:44:35;19.43;74.59
76897;SHT30;65856;52.178;21.176;2023-09-19T02:47:00;19.39;74.67
76897;SHT30;65856;52.178;21.176;2023-09-19T02:49:26;19.35;74.74
76897;SHT30;65856;52.178;21.176;2023-09-19T02:51:51;19.34;74.79
76897;SHT30;65856;52.178;21.176;2023-09-19T02:54:17;19.35;74.72
76897;SHT30;65856;52.178;21.176;2023-09-19T02:56:43;19.37;74.71
76897;SHT30;65856;52.178;21.176;2023-09-19T02:59:09;19.38;74.70
76897;SHT30;65856;52.178;21.176;2023-09-19T03:01:37;19.40;74.70
76897;SHT30;65856;52.178;21.176;2023-09-19T03:04:04;19.38;74.75
76897;SHT30;65856;52.178;21.176;2023-09-19T03:06:31;19.35;74.80
76897;SHT30;65856;52.178;21.176;2023-09-19T03:08:56;19.34;74.82
76897;SHT30;65856;52.178;21.176;2023-09-19T03:11:24;19.35;74.85
76897;SHT30;65856;52.178;21.176;2023-09-19T03:13:52;19.32;74.91
76897;SHT30;65856;52.178;21.176;2023-09-19T03:16:18;19.28;75.00
76897;SHT30;65856;52.178;21.176;2023-09-19T03:18:47;19.26;75.03
76897;SHT30;65856;52.178;21.176;2023-09-19T03:21:14;19.25;75.06
76897;SHT30;65856;52.178;21.176;2023-09-19T03:23:41;19.22;75.14
76897;SHT30;65856;52.178;21.176;2023-09-19T03:26:10;19.19;75.19
76897;SHT30;65856;52.178;21.176;2023-09-19T03:28:38;19.19;75.25
76897;SHT30;65856;52.178;21.176;2023-09-19T03:31:04;19.16;75.28
76897;SHT30;65856;52.178;21.176;2023-09-19T03:33:31;19.16;75.30
76897;SHT30;65856;52.178;21.176;2023-09-19T03:35:58;19.15;75.30
76897;SHT30;65856;52.178;21.176;2023-09-19T03:38:24;19.15;75.33
76897;SHT30;65856;52.178;21.176;2023-09-19T03:40:51;19.14;75.34
76897;SHT30;65856;52.178;21.176;2023-09-19T03:43:16;19.13;75.36
76897;SHT30;65856;52.178;21.176;2023-09-19T03:45:42;19.14;75.34
76897;SHT30;65856;52.178;21.176;2023-09-19T03:48:08;19.14;75.34
76897;SHT30;65856;52.178;21.176;2023-09-19T03:50:35;19.15;75.31
76897;SHT30;65856;52.178;21.176;2023-09-19T03:53:01;19.15;75.33
76897;SHT30;65856;52.178;21.176;2023-09-19T03:55:27;19.14;75.37
76897;SHT30;65856;52.178;21.176;2023-09-19T03:57:53;19.14;75.40
76897;SHT30;65856;52.178;21.176;2023-09-19T04:00:19;19.12;75.43
76897;SHT30;65856;52.178;21.176;2023-09-19T04:02:47;19.11;75.46
76897;SHT30;65856;52.178;21.176;2023-09-19T04:05:13;19.11;75.49
76897;SHT30;65856;52.178;21.176;2023-09-19T04:07:39;19.11;75.51
76897;SHT30;65856;52.178;21.176;2023-09-19T04:10:05;19.10;75.56
76897;SHT30;65856;52.178;21.176;2023-09-19T04:12:34;19.09;75.62
76897;SHT30;65856;52.178;21.176;2023-09-19T04:14:59;19.09;75.63
76897;SHT30;65856;52.178;21.176;2023-09-19T04:17:25;19.08;75.69
76897;SHT30;65856;52.178;21.176;2023-09-19T04:19:50;19.08;75.69
76897;SHT30;65856;52.178;21.176;2023-09-19T04:22:16;19.07;75.71
76897;SHT30;65856;52.178;21.176;2023-09-19T04:24:42;19.09;75.70
76897;SHT30;65856;52.178;21.176;2023-09-19T04:27:07;19.09;75.71
76897;SHT30;65856;52.178;21.176;2023-09-19T04:29:35;19.05;75.79
76897;SHT30;65856;52.178;21.176;2023-09-19T04:32:00;19.04;75.81
76897;SHT30;65856;52.178;21.176;2023-09-19T04:34:26;19.06;75.84
76897;SHT30;65856;52.178;21.176;2023-09-19T04:36:52;19.06;75.86
76897;SHT30;65856;52.178;21.176;2023-09-19T04:39:18;19.08;75.85
76897;SHT30;65856;52.178;21.176;2023-09-19T04:41:43;19.09;75.84
76897;SHT30;65856;52.178;21.176;2023-09-19T04:44:10;19.11;75.82
76897;SHT30;65856;52.178;21.176;2023-09-19T04:46:35;19.11;75.81
76897;SHT30;65856;52.178;21.176;2023-09-19T04:49:01;19.15;75.80
76897;SHT30;65856;52.178;21.176;2023-09-19T04:51:27;19.16;75.75
76897;SHT30;65856;52.178;21.176;2023-09-19T04:53:57;19.20;75.58
76897;SHT30;65856;52.178;21.176;2023-09-19T04:56:23;19.28;75.40
76897;SHT30;65856;52.178;21.176;2023-09-19T04:58:49;19.36;75.27
76897;SHT30;65856;52.178;21.176;2023-09-19T05:01:15;19.45;75.09
76897;SHT30;65856;52.178;21.176;2023-09-19T05:03:41;19.54;74.95
76897;SHT30;65856;52.178;21.176;2023-09-19T05:06:07;19.59;74.89
76897;SHT30;65856;52.178;21.176;2023-09-19T05:08:32;19.60;74.89
76897;SHT30;65856;52.178;21.176;2023-09-19T05:10:58;19.60;74.91
76897;SHT30;65856;52.178;21.176;2023-09-19T05:13:27;19.62;74.90
76897;SHT30;65856;52.178;21.176;2023-09-19T05:15:52;19.64;74.87
76897;SHT30;65856;52.178;21.176;2023-09-19T05:18:18;19.65;74.82
76897;SHT30;65856;52.178;21.176;2023-09-19T05:20:43;19.66;74.84
76897;SHT30;65856;52.178;21.176;2023-09-19T05:23:09;19.67;74.82
76897;SHT30;65856;52.178;21.176;2023-09-19T05:25:37;19.68;74.79
76897;SHT30;65856;52.178;21.176;2023-09-19T05:28:05;19.68;74.82
76897;SHT30;65856;52.178;21.176;2023-09-19T05:30:34;19.69;74.81
76897;SHT30;65856;52.178;21.176;2023-09-19T05:33:01;19.71;74.79
76897;SHT30;65856;52.178;21.176;2023-09-19T05:35:29;19.71;74.73
76897;SHT30;65856;52.178;21.176;2023-09-19T05:37:56;19.71;74.78
76897;SHT30;65856;52.178;21.176;2023-09-19T05:40:23;19.70;74.82
76897;SHT30;65856;52.178;21.176;2023-09-19T05:42:50;19.72;74.81
76897;SHT30;65856;52.178;21.176;2023-09-19T05:45:16;19.74;74.80
76897;SHT30;65856;52.178;21.176;2023-09-19T05:47:50;19.77;74.77
76897;SHT30;65856;52.178;21.176;2023-09-19T05:50:20;19.75;74.72
76897;SHT30;65856;52.178;21.176;2023-09-19T05:52:53;19.76;74.70
76897;SHT30;65856;52.178;21.176;2023-09-19T05:55:20;19.77;74.71
76897;SHT30;65856;52.178;21.176;2023-09-19T05:57:53;19.79;74.70
76897;SHT30;65856;52.178;21.176;2023-09-19T06:00:19;19.82;74.70
76897;SHT30;65856;52.178;21.176;2023-09-19T06:02:54;19.84;74.70
76897;SHT30;65856;52.178;21.176;2023-09-19T06:05:22;19.87;74.70
76897;SHT30;65856;52.178;21.176;2023-09-19T06:07:52;19.90;74.63
76897;SHT30;65856;52.178;21.176;2023-09-19T06:10:19;19.92;74.61
76897;SHT30;65856;52.178;21.176;2023-09-19T06:12:48;19.93;74.60
76897;SHT30;65856;52.178;21.176;2023-09-19T06:15:14;19.93;74.68
76897;SHT30;65856;52.178;21.176;2023-09-19T06:17:50;19.93;74.64
76897;SHT30;65856;52.178;21.176;2023-09-19T06:20:22;19.96;74.69
76897;SHT30;65856;52.178;21.176;2023-09-19T06:22:49;19.99;74.70
76897;SHT30;65856;52.178;21.176;2023-09-19T06:25:15;20.02;74.63
76897;SHT30;65856;52.178;21.176;2023-09-19T06:27:53;20.04;74.69
76897;SHT30;65856;52.178;21.176;2023-09-19T06:30:20;20.08;74.60
76897;SHT30;65856;52.178;21.176;2023-09-19T06:32:48;20.08;74.58
76897;SHT30;65856;52.178;21.176;2023-09-19T06:35:15;20.10;74.60
76897;SHT30;65856;52.178;21.176;2023-09-19T06:37:41;20.14;74.53
76897;SHT30;65856;52.178;21.176;2023-09-19T06:40:12;20.17;74.50
76897;SHT30;65856;52.178;21.176;2023-09-19T06:42:42;20.23;74.52
76897;SHT30;65856;52.178;21.176;2023-09-19T06:45:13;20.28;74.53
76897;SHT30;65856;52.178;21.176;2023-09-19T06:47:47;20.33;74.59
76897;SHT30;65856;52.178;21.176;2023-09-19T06:50:15;20.37;74.56
76897;SHT30;65856;52.178;21.176;2023-09-19T06:52:43;20.42;74.56
76897;SHT30;65856;52.178;21.176;2023-09-19T06:55:10;20.47;74.51
76897;SHT30;65856;52.178;21.176;2023-09-19T06:57:38;20.50;74.53
76897;SHT30;65856;52.178;21.176;2023-09-19T07:00:05;20.57;74.50
76897;SHT30;65856;52.178;21.176;2023-09-19T07:02:43;20.64;74.37
76897;SHT30;65856;52.178;21.176;2023-09-19T07:05:25;20.73;74.30
76897;SHT30;65856;52.178;21.176;2023-09-19T07:08:01;20.80;74.04
76897;SHT30;65856;52.178;21.176;2023-09-19T07:10:27;20.85;73.85
76897;SHT30;65856;52.178;21.176;2023-09-19T07:13:06;20.92;73.80
76897;SHT30;65856;52.178;21.176;2023-09-19T07:15:35;21.03;73.58
76897;SHT30;65856;52.178;21.176;2023-09-19T07:18:06;21.18;73.13
76897;SHT30;65856;52.178;21.176;2023-09-19T07:20:35;21.38;72.84
76897;SHT30;65856;52.178;21.176;2023-09-19T07:23:02;21.55;72.29
76897;SHT30;65856;52.178;21.176;2023-09-19T07:25:28;21.77;71.90
76897;SHT30;65856;52.178;21.176;2023-09-19T07:27:57;22.04;71.48
76897;SHT30;65856;52.178;21.176;2023-09-19T07:30:25;22.31;70.89
76897;SHT30;65856;52.178;21.176;2023-09-19T07:32:52;22.60;70.35
76897;SHT30;65856;52.178;21.176;2023-09-19T07:35:18;22.91;69.59
76897;SHT30;65856;52.178;21.176;2023-09-19T07:37:48;23.19;69.00
76897;SHT30;65856;52.178;21.176;2023-09-19T07:40:18;23.44;68.00
76897;SHT30;65856;52.178;21.176;2023-09-19T07:42:45;23.76;67.59
76897;SHT30;65856;52.178;21.176;2023-09-19T07:45:12;23.99;66.67
76897;SHT30;65856;52.178;21.176;2023-09-19T07:47:45;24.05;65.77
76897;SHT30;65856;52.178;21.176;2023-09-19T07:50:12;24.02;65.72
76897;SHT30;65856;52.178;21.176;2023-09-19T07:52:40;24.03;65.52
76897;SHT30;65856;52.178;21.176;2023-09-19T07:55:06;24.05;65.51
76897;SHT30;65856;52.178;21.176;2023-09-19T07:57:36;24.07;65.44
76897;SHT30;65856;52.178;21.176;2023-09-19T08:00:02;24.09;65.21
76897;SHT30;65856;52.178;21.176;2023-09-19T08:02:35;24.12;65.45
76897;SHT30;65856;52.178;21.176;2023-09-19T08:05:05;24.20;65.42
76897;SHT30;65856;52.178;21.176;2023-09-19T08:07:38;24.23;65.36
76897;SHT30;65856;52.178;21.176;2023-09-19T08:10:06;24.21;65.23
76897;SHT30;65856;52.178;21.176;2023-09-19T08:12:36;24.13;65.01
76897;SHT30;65856;52.178;21.176;2023-09-19T08:15:02;24.15;64.87
76897;SHT30;65856;52.178;21.176;2023-09-19T08:17:28;24.20;64.57
76897;SHT30;65856;52.178;21.176;2023-09-19T08:19:59;24.24;64.46
76897;SHT30;65856;52.178;21.176;2023-09-19T08:22:25;24.21;64.18
76897;SHT30;65856;52.178;21.176;2023-09-19T08:24:52;24.23;64.18
76897;SHT30;65856;52.178;21.176;2023-09-19T08:27:17;24.22;64.09
76897;SHT30;65856;52.178;21.176;2023-09-19T08:29:44;24.21;64.17
76897;SHT30;65856;52.178;21.176;2023-09-19T08:32:10;24.27;64.36
76897;SHT30;65856;52.178;21.176;2023-09-19T08:34:36;24.41;64.03
76897;SHT30;65856;52.178;21.176;2023-09-19T08:37:03;24.51;63.50
76897;SHT30;65856;52.178;21.176;2023-09-19T08:39:29;24.57;63.60
76897;SHT30;65856;52.178;21.176;2023-09-19T08:41:59;24.61;63.63
76897;SHT30;65856;52.178;21.176;2023-09-19T08:44:26;24.63;63.23
76897;SHT30;65856;52.178;21.176;2023-09-19T08:47:10;24.57;62.84
76897;SHT30;65856;52.178;21.176;2023-09-19T08:49:59;24.47;63.28
76897;SHT30;65856;52.178;21.176;2023-09-19T08:52:42;24.41;63.44
76897;SHT30;65856;52.178;21.176;2023-09-19T08:55:12;24.39;63.48
76897;SHT30;65856;52.178;21.176;2023-09-19T08:57:46;24.38;63.45
76897;SHT30;65856;52.178;21.176;2023-09-19T09:00:15;24.36;63.49
76897;SHT30;65856;52.178;21.176;2023-09-19T09:02:46;24.31;63.56
76897;SHT30;65856;52.178;21.176;2023-09-19T09:05:12;24.24;63.36
76897;SHT30;65856;52.178;21.176;2023-09-19T09:07:40;24.13;63.58
76897;SHT30;65856;52.178;21.176;2023-09-19T09:10:06;24.08;63.76
76897;SHT30;65856;52.178;21.176;2023-09-19T09:12:33;24.06;63.71
76897;SHT30;65856;52.178;21.176;2023-09-19T09:15:06;24.03;63.72
76897;SHT30;65856;52.178;21.176;2023-09-19T09:17:34;23.97;63.82
76897;SHT30;65856;52.178;21.176;2023-09-19T09:19:59;23.93;64.25
76897;SHT30;65856;52.178;21.176;2023-09-19T09:22:25;23.90;64.40
76897;SHT30;65856;52.178;21.176;2023-09-19T09:24:55;23.89;64.44
76897;SHT30;65856;52.178;21.176;2023-09-19T09:27:24;23.87;64.48
76897;SHT30;65856;52.178;21.176;2023-09-19T09:29:51;23.87;64.47
76897;SHT30;65856;52.178;21.176;2023-09-19T09:32:23;23.86;64.56
76897;SHT30;65856;52.178;21.176;2023-09-19T09:34:57;23.86;64.56
76897;SHT30;65856;52.178;21.176;2023-09-19T09:37:25;23.79;64.35
76897;SHT30;65856;52.178;21.176;2023-09-19T09:40:00;23.74;64.71
76897;SHT30;65856;52.178;21.176;2023-09-19T09:42:39;23.68;65.09
76897;SHT30;65856;52.178;21.176;2023-09-19T09:45:15;23.65;65.35
76897;SHT30;65856;52.178;21.176;2023-09-19T09:48:02;23.61;65.47
76897;SHT30;65856;52.178;21.176;2023-09-19T09:50:38;23.58;65.45
76897;SHT30;65856;52.178;21.176;2023-09-19T09:53:29;23.55;65.54
76897;SHT30;65856;52.178;21.176;2023-09-19T09:58:24;23.47;65.71
76897;SHT30;65856;52.178;21.176;2023-09-19T10:00:54;23.41;65.77
76897;SHT30;65856;52.178;21.176;2023-09-19T10:03:31;23.35;65.96
76897;SHT30;65856;52.178;21.176;2023-09-19T10:06:04;23.31;66.13
76897;SHT30;65856;52.178;21.176;2023-09-19T10:08:36;23.23;66.29
76897;SHT30;65856;52.178;21.176;2023-09-19T10:11:12;23.10;66.98
76897;SHT30;65856;52.178;21.176;2023-09-19T10:13:41;22.94;67.66
76897;SHT30;65856;52.178;21.176;2023-09-19T10:16:11;22.80;68.74
76897;SHT30;65856;52.178;21.176;2023-09-19T10:18:39;22.66;69.64
76897;SHT30;65856;52.178;21.176;2023-09-19T10:21:08;22.48;70.69
76897;SHT30;65856;52.178;21.176;2023-09-19T10:23:35;22.31;71.77
76897;SHT30;65856;52.178;21.176;2023-09-19T10:26:03;22.15;72.45
76897;SHT30;65856;52.178;21.176;2023-09-19T10:28:31;22.03;73.14
76897;SHT30;65856;52.178;21.176;2023-09-19T10:30:57;21.94;73.60
76897;SHT30;65856;52.178;21.176;2023-09-19T10:33:26;21.88;73.81
76897;SHT30;65856;52.178;21.176;2023-09-19T10:36:02;21.83;74.13
76897;SHT30;65856;52.178;21.176;2023-09-19T10:38:30;21.78;74.44
76897;SHT30;65856;52.178;21.176;2023-09-19T10:40:58;21.73;74.72
76897;SHT30;65856;52.178;21.176;2023-09-19T10:43:31;21.67;75.07
76897;SHT30;65856;52.178;21.176;2023-09-19T10:46:00;21.62;75.20
76897;SHT30;65856;52.178;21.176;2023-09-19T10:48:32;21.58;75.45
76897;SHT30;65856;52.178;21.176;2023-09-19T10:56:24;21.51;75.99
76897;SHT30;65856;52.178;21.176;2023-09-19T10:59:06;21.48;76.18
76897;SHT30;65856;52.178;21.176;2023-09-19T11:01:51;21.45;76.20
76897;SHT30;65856;52.178;21.176;2023-09-19T11:04:28;21.44;76.25
76897;SHT30;65856;52.178;21.176;2023-09-19T11:07:07;21.46;76.36
76897;SHT30;65856;52.178;21.176;2023-09-19T11:09:46;21.48;76.74
76897;SHT30;65856;52.178;21.176;2023-09-19T11:14:57;21.52;77.11
76897;SHT30;65856;52.178;21.176;2023-09-19T11:17:30;21.53;77.20
76897;SHT30;65856;52.178;21.176;2023-09-19T11:46:28;21.45;78.48
76897;SHT30;65856;52.178;21.176;2023-09-19T11:49:04;21.46;78.50
76897;SHT30;65856;52.178;21.176;2023-09-19T11:51:57;21.47;78.42
76897;SHT30;65856;52.178;21.176;2023-09-19T11:54:31;21.41;78.69
76897;SHT30;65856;52.178;21.176;2023-09-19T11:56:57;21.43;78.93
76897;SHT30;65856;52.178;21.176;2023-09-19T11:59:29;21.48;78.80
76897;SHT30;65856;52.178;21.176;2023-09-19T12:01:56;21.50;78.93
76897;SHT30;65856;52.178;21.176;2023-09-19T12:04:36;21.54;78.91
76897;SHT30;65856;52.178;21.176;2023-09-19T12:07:11;21.56;79.00
76897;SHT30;65856;52.178;21.176;2023-09-19T12:09:47;21.59;79.12
76897;SHT30;65856;52.178;21.176;2023-09-19T12:12:29;21.60;79.18
76897;SHT30;65856;52.178;21.176;2023-09-19T12:14:55;21.62;79.13
76897;SHT30;65856;52.178;21.176;2023-09-19T12:17:24;21.63;79.06
76897;SHT30;65856;52.178;21.176;2023-09-19T12:20:01;21.62;79.23
76897;SHT30;65856;52.178;21.176;2023-09-19T12:22:44;21.61;79.24
76897;SHT30;65856;52.178;21.176;2023-09-19T12:25:12;21.61;79.13
76897;SHT30;65856;52.178;21.176;2023-09-19T12:27:41;21.61;79.24
76897;SHT30;65856;52.178;21.176;2023-09-19T12:30:18;21.62;79.28
76897;SHT30;65856;52.178;21.176;2023-09-19T12:32:47;21.64;79.39
76897;SHT30;65856;52.178;21.176;2023-09-19T12:35:27;21.65;79.34
76897;SHT30;65856;52.178;21.176;2023-09-19T12:37:59;21.66;79.30
76897;SHT30;65856;52.178;21.176;2023-09-19T12:40:26;21.65;79.29
76897;SHT30;65856;52.178;21.176;2023-09-19T12:42:57;21.66;79.34
76897;SHT30;65856;52.178;21.176;2023-09-19T12:45:27;21.65;79.34
76897;SHT30;65856;52.178;21.176;2023-09-19T12:51:04;21.62;78.79
76897;SHT30;65856;52.178;21.176;2023-09-19T12:53:35;21.58;78.78
76897;SHT30;65856;52.178;21.176;2023-09-19T12:56:07;21.57;78.99
76897;SHT30;65856;52.178;21.176;2023-09-19T12:58:48;21.58;79.03
76897;SHT30;65856;52.178;21.176;2023-09-19T13:01:26;21.61;79.22
76897;SHT30;65856;52.178;21.176;2023-09-19T13:06:57;21.62;79.01
76897;SHT30;65856;52.178;21.176;2023-09-19T13:09:26;21.62;78.93
76897;SHT30;65856;52.178;21.176;2023-09-19T13:12:03;21.61;79.01
76897;SHT30;65856;52.178;21.176;2023-09-19T13:15:07;21.59;78.90
76897;SHT30;65856;52.178;21.176;2023-09-19T13:17:42;21.61;79.01
76897;SHT30;65856;52.178;21.176;2023-09-19T13:20:31;21.60;79.16
76897;SHT30;65856;52.178;21.176;2023-09-19T13:22:57;21.62;79.09
76897;SHT30;65856;52.178;21.176;2023-09-19T13:25:33;21.61;79.14
76897;SHT30;65856;52.178;21.176;2023-09-19T13:28:00;21.65;79.22
76897;SHT30;65856;52.178;21.176;2023-09-19T13:30:29;21.62;79.25
76897;SHT30;65856;52.178;21.176;2023-09-19T13:33:09;21.59;79.28
76897;SHT30;65856;52.178;21.176;2023-09-19T13:35:37;21.63;79.39
76897;SHT30;65856;52.178;21.176;2023-09-19T13:38:05;21.64;79.09
76897;SHT30;65856;52.178;21.176;2023-09-19T13:40:34;21.65;79.09
76897;SHT30;65856;52.178;21.176;2023-09-19T13:43:00;21.66;79.28
76897;SHT30;65856;52.178;21.176;2023-09-19T13:45:26;21.66;79.37
76897;SHT30;65856;52.178;21.176;2023-09-19T13:47:52;21.67;79.34
76897;SHT30;65856;52.178;21.176;2023-09-19T13:50:18;21.68;79.36
76897;SHT30;65856;52.178;21.176;2023-09-19T13:52:49;21.67;79.50
76897;SHT30;65856;52.178;21.176;2023-09-19T13:55:18;21.69;79.45
76897;SHT30;65856;52.178;21.176;2023-09-19T13:57:46;21.70;79.41
76897;SHT30;65856;52.178;21.176;2023-09-19T14:00:15;21.72;79.35
76897;SHT30;65856;52.178;21.176;2023-09-19T14:02:42;21.73;79.20
76897;SHT30;65856;52.178;21.176;2023-09-19T14:05:11;21.74;79.16
76897;SHT30;65856;52.178;21.176;2023-09-19T14:07:41;21.74;79.15
76897;SHT30;65856;52.178;21.176;2023-09-19T14:10:08;21.75;79.11
76897;SHT30;65856;52.178;21.176;2023-09-19T14:12:38;21.76;79.22
76897;SHT30;65856;52.178;21.176;2023-09-19T14:15:10;21.77;79.23
76897;SHT30;65856;52.178;21.176;2023-09-19T14:17:37;21.79;79.02
76897;SHT30;65856;52.178;21.176;2023-09-19T14:20:04;21.82;78.99
76897;SHT30;65856;52.178;21.176;2023-09-19T14:22:32;21.85;79.01
76897;SHT30;65856;52.178;21.176;2023-09-19T14:24:58;21.85;79.11
76897;SHT30;65856;52.178;21.176;2023-09-19T14:27:24;21.86;79.06
76897;SHT30;65856;52.178;21.176;2023-09-19T14:29:50;21.88;79.09
76897;SHT30;65856;52.178;21.176;2023-09-19T14:32:16;21.87;79.16
76897;SHT30;65856;52.178;21.176;2023-09-19T14:34:42;21.88;79.20
76897;SHT30;65856;52.178;21.176;2023-09-19T14:37:09;21.89;79.10
76897;SHT30;65856;52.178;21.176;2023-09-19T14:39:36;21.90;79.07
76897;SHT30;65856;52.178;21.176;2023-09-19T14:42:04;21.91;78.96
76897;SHT30;65856;52.178;21.176;2023-09-19T14:44:30;21.92;78.91
76897;SHT30;65856;52.178;21.176;2023-09-19T14:46:55;21.90;79.01
76897;SHT30;65856;52.178;21.176;2023-09-19T14:49:21;21.89;79.04
76897;SHT30;65856;52.178;21.176;2023-09-19T14:51:46;21.88;78.86
76897;SHT30;65856;52.178;21.176;2023-09-19T14:54:17;21.86;79.02
76897;SHT30;65856;52.178;21.176;2023-09-19T14:56:43;21.84;78.97
76897;SHT30;65856;52.178;21.176;2023-09-19T14:59:10;21.80;79.03
76897;SHT30;65856;52.178;21.176;2023-09-19T15:01:36;21.74;78.73
76897;SHT30;65856;52.178;21.176;2023-09-19T15:04:02;21.72;78.57
76897;SHT30;65856;52.178;21.176;2023-09-19T15:06:27;21.71;78.86
76897;SHT30;65856;52.178;21.176;2023-09-19T15:08:53;21.68;78.86
76897;SHT30;65856;52.178;21.176;2023-09-19T15:11:19;21.66;78.80
76897;SHT30;65856;52.178;21.176;2023-09-19T15:13:47;21.66;78.86
76897;SHT30;65856;52.178;21.176;2023-09-19T15:16:16;21.65;78.97
76897;SHT30;65856;52.178;21.176;2023-09-19T15:18:42;21.64;79.07
76897;SHT30;65856;52.178;21.176;2023-09-19T15:21:12;21.65;79.06
76897;SHT30;65856;52.178;21.176;2023-09-19T15:23:40;21.65;79.10
76897;SHT30;65856;52.178;21.176;2023-09-19T15:26:08;21.63;79.10
76897;SHT30;65856;52.178;21.176;2023-09-19T15:28:37;21.63;79.07
76897;SHT30;65856;52.178;21.176;2023-09-19T15:31:07;21.60;78.91
76897;SHT30;65856;52.178;21.176;2023-09-19T15:33:36;21.60;78.85
76897;SHT30;65856;52.178;21.176;2023-09-19T15:36:03;21.59;78.93
76897;SHT30;65856;52.178;21.176;2023-09-19T15:41:32;21.56;79.06
76897;SHT30;65856;52.178;21.176;2023-09-19T15:44:02;21.55;79.14
76897;SHT30;65856;52.178;21.176;2023-09-19T15:46:30;21.54;79.30
76897;SHT30;65856;52.178;21.176;2023-09-19T15:49:01;21.53;79.42
76897;SHT30;65856;52.178;21.176;2023-09-19T15:51:27;21.51;79.51
76897;SHT30;65856;52.178;21.176;2023-09-19T15:53:54;21.50;79.58
76897;SHT30;65856;52.178;21.176;2023-09-19T15:56:22;21.46;79.59
76897;SHT30;65856;52.178;21.176;2023-09-19T15:58:50;21.43;79.63
76897;SHT30;65856;52.178;21.176;2023-09-19T16:01:18;21.43;79.64
76897;SHT30;65856;52.178;21.176;2023-09-19T16:03:46;21.44;79.64
76897;SHT30;65856;52.178;21.176;2023-09-19T16:06:18;21.42;79.67
76897;SHT30;65856;52.178;21.176;2023-09-19T16:08:48;21.41;79.68
76897;SHT30;65856;52.178;21.176;2023-09-19T16:11:17;21.40;79.54
76897;SHT30;65856;52.178;21.176;2023-09-19T16:13:50;21.38;79.28
76897;SHT30;65856;52.178;21.176;2023-09-19T16:16:19;21.38;79.22
76897;SHT30;65856;52.178;21.176;2023-09-19T16:18:53;21.33;79.11
76897;SHT30;65856;52.178;21.176;2023-09-19T16:21:23;21.31;78.92
76897;SHT30;65856;52.178;21.176;2023-09-19T16:23:51;21.27;78.85
76897;SHT30;65856;52.178;21.176;2023-09-19T16:26:19;21.25;78.99
76897;SHT30;65856;52.178;21.176;2023-09-19T16:28:46;21.22;79.00